Time;durP1;ratioP1;P1;durP2;ratioP2;P2;SDS_P1;SDS_P2;PMS_P1;PMS_P2;Temp;Humidity;BMP_temperature;BMP_pressure;BME280_temperature;BME280_humidity;BME280_pressure;Samples;Min_cycle;Max_cycle;Signal;HPM_P1;HPM_P2
2021/06/27 00:00:20;;;;;;;58.53;3.10;;;17.10;32.90;;;;;;5054345;28;20521;-74
2021/06/27 00:02:47;;;;;;;58.73;3.20;;;17.00;38.10;;;;;;5053816;28;20498;-74
2021/06/27 00:05:16;;;;;;;59.93;4.07;;;17.00;37.40;;;;;;5054256;28;20880;-74
2021/06/27 00:07:45;;;;;;;59.40;3.50;;;17.00;43.80;;;;;;5053985;28;20497;-74
2021/06/27 00:10:20;;;;;;;58.97;3.40;;;17.00;39.60;;;;;;5054210;28;20851;-74
2021/06/27 00:12:47;;;;;;;58.53;3.10;;;17.00;38.80;;;;;;5053736;28;20560;-74
2021/06/27 00:15:17;;;;;;;58.37;3.10;;;17.00;39.40;;;;;;5053956;28;20455;-74
2021/06/27 00:17:45;;;;;;;59.17;3.00;;;17.00;38.10;;;;;;5053807;28;21001;-74
2021/06/27 00:20:15;;;;;;;58.50;2.90;;;16.90;37.10;;;;;;5053844;28;21184;-74
2021/06/27 00:22:44;;;;;;;59.30;3.57;;;16.90;38.00;;;;;;5053572;28;20481;-74
2021/06/27 00:25:14;;;;;;;58.57;3.03;;;16.80;39.80;;;;;;5053695;28;20506;-74
2021/06/27 00:27:41;;;;;;;59.43;4.40;;;16.80;46.50;;;;;;5053785;28;20572;-73
2021/06/27 00:30:09;;;;;;;58.63;2.90;;;16.80;45.50;;;;;;5053611;28;20455;-74
2021/06/27 00:32:37;;;;;;;58.07;2.70;;;16.80;46.70;;;;;;5053576;28;20504;-74
2021/06/27 00:35:06;;;;;;;58.60;2.70;;;16.80;47.40;;;;;;5053548;28;20968;-74
2021/06/27 00:37:32;;;;;;;58.57;2.93;;;16.70;47.00;;;;;;5053693;28;20485;-74
2021/06/27 00:40:02;;;;;;;58.80;3.10;;;16.80;45.50;;;;;;5053557;28;20630;-74
2021/06/27 00:42:29;;;;;;;59.40;3.93;;;16.70;42.80;;;;;;5052949;28;20557;-74
2021/06/27 00:44:56;;;;;;;58.77;3.47;;;16.70;43.80;;;;;;5053581;28;20533;-74
2021/06/27 00:47:29;;;;;;;59.20;3.53;;;16.70;41.20;;;;;;5053382;28;20541;-74
2021/06/27 00:49:56;;;;;;;61.40;4.67;;;16.70;41.40;;;;;;5053542;28;20988;-74
2021/06/27 00:52:23;;;;;;;59.10;2.90;;;16.70;39.80;;;;;;5053038;28;20796;-74
2021/06/27 00:54:50;;;;;;;59.00;3.40;;;16.60;37.70;;;;;;5053010;28;20484;-74
2021/06/27 00:57:19;;;;;;;58.67;2.80;;;16.60;35.30;;;;;;5053079;28;20976;-74
2021/06/27 00:59:46;;;;;;;60.47;3.40;;;16.60;38.80;;;;;;5053299;28;20537;-74
2021/06/27 01:02:14;;;;;;;58.77;3.40;;;16.50;38.20;;;;;;5053088;28;20477;-74
2021/06/27 01:04:41;;;;;;;59.00;3.13;;;16.50;39.20;;;;;;5053091;28;20449;-74
2021/06/27 01:07:09;;;;;;;58.67;3.00;;;16.50;39.90;;;;;;5053028;28;20460;-74
2021/06/27 01:09:36;;;;;;;59.17;3.80;;;16.50;41.10;;;;;;5052808;28;20853;-74
2021/06/27 01:12:03;;;;;;;58.87;3.60;;;16.50;39.60;;;;;;5052795;28;20537;-74
2021/06/27 01:14:31;;;;;;;58.90;3.30;;;16.40;42.30;;;;;;5052704;28;20556;-74
2021/06/27 01:16:58;;;;;;;58.60;2.70;;;16.40;43.20;;;;;;5052955;28;20645;-74
2021/06/27 01:19:30;;;;;;;58.80;2.90;;;16.40;43.80;;;;;;5052882;28;20478;-74
2021/06/27 01:21:59;;;;;;;58.63;2.87;;;16.30;46.20;;;;;;5052330;28;20446;-74
2021/06/27 01:24:26;;;;;;;58.77;3.40;;;16.30;45.10;;;;;;5052275;28;20509;-74
2021/06/27 01:26:53;;;;;;;61.50;3.00;;;16.30;42.10;;;;;;5052814;28;20448;-73
2021/06/27 01:29:20;;;;;;;58.73;2.77;;;16.20;44.80;;;;;;5052632;28;20485;-73
2021/06/27 01:31:47;;;;;;;59.17;3.70;;;16.20;45.00;;;;;;5052122;28;20452;-73
2021/06/27 01:34:14;;;;;;;58.47;2.90;;;16.20;47.60;;;;;;5052421;28;20476;-73
2021/06/27 01:36:41;;;;;;;58.43;2.80;;;16.20;44.90;;;;;;5052332;28;20976;-73
2021/06/27 01:39:09;;;;;;;58.80;2.70;;;16.20;43.40;;;;;;5052349;28;20479;-73
2021/06/27 01:41:36;;;;;;;59.07;3.70;;;16.20;41.50;;;;;;5052205;28;20454;-73
2021/06/27 01:44:03;;;;;;;58.63;3.00;;;16.20;45.00;;;;;;5052171;28;20556;-74
2021/06/27 01:46:30;;;;;;;59.30;3.70;;;16.10;43.40;;;;;;5052183;28;20933;-74
2021/06/27 01:48:57;;;;;;;58.33;3.40;;;16.10;43.10;;;;;;5052251;28;20857;-73
2021/06/27 01:51:24;;;;;;;58.70;2.90;;;16.00;43.50;;;;;;5051865;28;20541;-73
2021/06/27 01:53:51;;;;;;;59.00;3.17;;;16.00;43.10;;;;;;5052229;28;20508;-73
2021/06/27 01:56:19;;;;;;;58.60;3.00;;;15.90;57.50;;;;;;5052190;28;20481;-73
2021/06/27 01:58:48;;;;;;;58.30;2.83;;;15.90;55.50;;;;;;5051945;28;20535;-73
2021/06/27 02:01:18;;;;;;;58.67;3.07;;;15.90;56.20;;;;;;5051939;28;20480;-73
2021/06/27 02:03:45;;;;;;;58.93;3.20;;;15.90;57.90;;;;;;5051633;28;20469;-73
2021/06/27 02:06:12;;;;;;;59.23;3.37;;;15.80;62.00;;;;;;5051544;28;20484;-73
2021/06/27 02:08:41;;;;;;;59.30;3.63;;;15.90;62.20;;;;;;5052002;28;20491;-73
2021/06/27 02:11:10;;;;;;;58.60;3.20;;;15.80;64.90;;;;;;5051903;28;20449;-73
2021/06/27 02:13:39;;;;;;;58.80;3.47;;;15.80;67.20;;;;;;5051669;28;20469;-73
2021/06/27 02:16:07;;;;;;;58.67;2.87;;;15.80;66.00;;;;;;5051834;28;20547;-73
2021/06/27 02:18:36;;;;;;;59.63;3.37;;;15.90;65.80;;;;;;5051683;28;20456;-73
2021/06/27 02:21:08;;;;;;;58.70;3.00;;;15.90;65.70;;;;;;5051814;28;20464;-73
2021/06/27 02:23:35;;;;;;;58.67;2.90;;;15.80;65.20;;;;;;5051562;28;20503;-73
2021/06/27 02:26:02;;;;;;;59.60;3.10;;;15.90;64.90;;;;;;5051635;28;20563;-73
2021/06/27 02:28:32;;;;;;;59.10;3.13;;;15.90;64.40;;;;;;5051626;28;20577;-73
2021/06/27 02:31:00;;;;;;;59.57;3.47;;;15.90;64.20;;;;;;5051373;28;21024;-73
2021/06/27 02:33:28;;;;;;;59.20;3.27;;;15.90;64.80;;;;;;5051579;28;20507;-73
2021/06/27 02:35:55;;;;;;;58.87;3.40;;;15.90;62.00;;;;;;5051713;28;20499;-73
2021/06/27 02:38:22;;;;;;;58.50;2.80;;;15.90;60.90;;;;;;5051504;28;20531;-73
2021/06/27 02:40:50;;;;;;;59.07;4.27;;;15.90;61.60;;;;;;5051599;28;20544;-73
2021/06/27 02:43:18;;;;;;;60.10;3.10;;;15.90;60.50;;;;;;5051111;28;20564;-73
2021/06/27 02:45:45;;;;;;;58.47;2.83;;;15.80;61.80;;;;;;5051414;28;20556;-73
2021/06/27 02:48:13;;;;;;;58.63;2.97;;;15.80;58.90;;;;;;5051312;28;20575;-73
2021/06/27 02:50:40;;;;;;;59.90;3.40;;;15.70;57.80;;;;;;5051604;28;20628;-73
2021/06/27 02:53:09;;;;;;;59.63;3.57;;;15.70;61.60;;;;;;5051214;28;20483;-73
2021/06/27 02:55:36;;;;;;;58.87;3.67;;;15.70;61.60;;;;;;5051432;28;20956;-73
2021/06/27 02:58:03;;;;;;;58.80;3.73;;;15.60;63.10;;;;;;5051221;28;20538;-73
2021/06/27 03:00:30;;;;;;;59.10;2.90;;;15.60;61.00;;;;;;5051579;28;20532;-73
2021/06/27 03:02:58;;;;;;;60.17;3.73;;;15.60;61.20;;;;;;5051126;28;20475;-73
2021/06/27 03:05:27;;;;;;;59.07;3.57;;;15.50;62.20;;;;;;5051398;28;20485;-73
2021/06/27 03:07:54;;;;;;;58.30;3.20;;;15.50;64.70;;;;;;5051099;28;20537;-73
2021/06/27 03:10:21;;;;;;;58.70;2.90;;;15.40;64.80;;;;;;5051721;28;20481;-73
2021/06/27 03:12:51;;;;;;;59.63;4.40;;;15.40;67.80;;;;;;5050852;28;20467;-73
2021/06/27 03:15:20;;;;;;;58.77;3.10;;;15.40;70.30;;;;;;5051155;28;20965;-73
2021/06/27 03:17:48;;;;;;;58.80;3.27;;;15.50;72.00;;;;;;5054427;28;21015;-73
2021/06/27 03:20:16;;;;;;;58.40;3.07;;;15.50;68.90;;;;;;5055002;28;20451;-73
2021/06/27 03:22:46;;;;;;;58.37;2.90;;;15.50;68.70;;;;;;5054688;28;20550;-73
2021/06/27 03:25:15;;;;;;;59.77;3.87;;;15.50;68.40;;;;;;5054753;28;20470;-73
2021/06/27 03:27:42;;;;;;;58.80;3.13;;;15.50;69.40;;;;;;5055072;28;20532;-73
2021/06/27 03:30:10;;;;;;;59.40;4.00;;;15.60;69.90;;;;;;5054858;28;20479;-73
2021/06/27 03:32:37;;;;;;;59.10;3.20;;;15.60;69.00;;;;;;5054548;28;20900;-73
2021/06/27 03:35:05;;;;;;;59.00;3.90;;;15.60;68.00;;;;;;5054803;28;20997;-73
2021/06/27 03:37:32;;;;;;;58.40;2.80;;;15.60;69.40;;;;;;5054569;28;20527;-73
2021/06/27 03:40:00;;;;;;;58.90;3.17;;;15.60;68.80;;;;;;5055038;28;20532;-73
2021/06/27 03:42:28;;;;;;;59.00;3.10;;;15.60;68.20;;;;;;5054413;28;20552;-73
2021/06/27 03:44:55;;;;;;;58.67;3.17;;;15.70;67.50;;;;;;5054585;28;20867;-73
2021/06/27 03:47:23;;;;;;;59.37;3.73;;;15.60;67.10;;;;;;5054591;28;20538;-73
2021/06/27 03:49:50;;;;;;;59.67;3.73;;;15.60;68.20;;;;;;5054458;28;20655;-73
2021/06/27 03:52:17;;;;;;;58.67;3.37;;;15.70;68.10;;;;;;5053929;28;20480;-73
2021/06/27 03:54:44;;;;;;;59.40;3.63;;;15.70;67.60;;;;;;5054568;28;20447;-73
2021/06/27 03:57:12;;;;;;;58.47;2.67;;;15.70;67.80;;;;;;5054522;28;20499;-73
2021/06/27 03:59:39;;;;;;;58.37;2.90;;;15.80;67.30;;;;;;5054389;28;20527;-73
2021/06/27 04:02:06;;;;;;;58.77;3.30;;;15.70;68.40;;;;;;5054022;28;20491;-73
2021/06/27 04:04:33;;;;;;;58.50;3.00;;;15.80;69.60;;;;;;5054124;28;20505;-73
2021/06/27 04:06:59;;;;;;;58.57;3.13;;;15.80;69.60;;;;;;5054284;28;20532;-73
2021/06/27 04:09:26;;;;;;;58.67;3.00;;;15.80;68.60;;;;;;5053936;28;20575;-73
2021/06/27 04:11:53;;;;;;;58.33;3.30;;;15.80;68.70;;;;;;5053879;28;20448;-73
2021/06/27 04:14:21;;;;;;;59.20;3.10;;;15.90;69.90;;;;;;5053900;28;20591;-73
2021/06/27 04:16:48;;;;;;;59.10;3.30;;;15.90;70.50;;;;;;5053959;28;21008;-72
2021/06/27 04:19:15;;;;;;;58.17;2.70;;;16.00;69.60;;;;;;5053697;28;20960;-73
2021/06/27 04:21:42;;;;;;;58.17;2.77;;;16.00;69.00;;;;;;5053515;28;20515;-73
2021/06/27 04:24:09;;;;;;;60.50;4.03;;;16.10;69.40;;;;;;5053649;28;20547;-73
2021/06/27 04:26:36;;;;;;;58.57;2.80;;;16.10;68.30;;;;;;5053869;28;20477;-73
2021/06/27 04:29:03;;;;;;;58.60;3.13;;;16.20;70.00;;;;;;5053055;28;20536;-73
2021/06/27 04:31:31;;;;;;;58.77;3.40;;;16.20;70.10;;;;;;5053318;28;20444;-73
2021/06/27 04:33:58;;;;;;;58.70;3.10;;;16.30;68.90;;;;;;5053509;28;20512;-73
2021/06/27 04:36:25;;;;;;;58.27;2.70;;;16.40;69.80;;;;;;5053852;28;20478;-73
2021/06/27 04:38:52;;;;;;;58.60;3.30;;;16.40;68.80;;;;;;5053734;28;20448;-73
2021/06/27 04:41:18;;;;;;;58.10;2.60;;;16.50;69.70;;;;;;5053510;28;20481;-73
2021/06/27 04:43:45;;;;;;;58.27;2.63;;;16.50;69.10;;;;;;5053153;28;20566;-73
2021/06/27 04:46:12;;;;;;;58.27;2.80;;;16.60;69.50;;;;;;5053338;28;20490;-73
2021/06/27 04:48:40;;;;;;;59.47;4.43;;;16.70;69.10;;;;;;5053182;28;20540;-73
2021/06/27 04:51:07;;;;;;;58.27;2.90;;;16.70;68.30;;;;;;5053373;28;20485;-73
2021/06/27 04:53:34;;;;;;;58.93;3.23;;;16.80;67.60;;;;;;5052876;28;20509;-73
2021/06/27 04:56:01;;;;;;;59.67;3.97;;;16.90;65.20;;;;;;5053233;28;20529;-73
2021/06/27 04:58:29;;;;;;;58.37;3.30;;;16.90;65.10;;;;;;5053155;28;20484;-73
2021/06/27 05:00:55;;;;;;;58.27;2.70;;;17.00;64.20;;;;;;5052965;28;20535;-73
2021/06/27 05:03:22;;;;;;;57.93;2.50;;;17.10;64.00;;;;;;5052745;28;20552;-73
2021/06/27 05:05:50;;;;;;;58.80;3.53;;;17.10;63.70;;;;;;5053056;28;20482;-73
2021/06/27 05:08:17;;;;;;;58.60;3.10;;;17.20;60.20;;;;;;5053092;28;20486;-72
2021/06/27 05:10:44;;;;;;;59.27;3.37;;;17.20;57.00;;;;;;5052878;28;20486;-73
2021/06/27 05:13:11;;;;;;;60.07;3.70;;;17.30;53.90;;;;;;5052451;28;21024;-73
2021/06/27 05:15:38;;;;;;;58.80;3.30;;;17.40;50.50;;;;;;5052801;28;20486;-73
2021/06/27 05:18:05;;;;;;;58.57;2.93;;;17.40;45.70;;;;;;5053037;28;20450;-73
2021/06/27 05:20:32;;;;;;;59.87;3.43;;;17.40;42.20;;;;;;5052738;28;20452;-73
2021/06/27 05:23:00;;;;;;;58.33;3.00;;;17.40;36.90;;;;;;5052466;28;20902;-73
2021/06/27 05:25:27;;;;;;;58.47;3.03;;;17.40;36.00;;;;;;5052629;28;20494;-73
2021/06/27 05:27:54;;;;;;;58.63;3.40;;;17.50;33.50;;;;;;5052467;28;20533;-73
2021/06/27 05:30:21;;;;;;;58.60;3.00;;;17.50;34.40;;;;;;5052670;28;20486;-73
2021/06/27 05:32:48;;;;;;;58.60;3.13;;;17.50;32.90;;;;;;5052349;28;20477;-73
2021/06/27 05:35:15;;;;;;;59.67;3.40;;;17.60;29.20;;;;;;5052552;28;20482;-73
2021/06/27 05:37:42;;;;;;;60.10;4.00;;;17.70;27.00;;;;;;5052503;28;20530;-73
2021/06/27 05:40:12;;;;;;;58.80;3.20;;;17.70;24.00;;;;;;5051391;28;20542;-73
2021/06/27 05:42:39;;;;;;;58.37;3.23;;;17.80;20.50;;;;;;5051955;28;20551;-73
2021/06/27 05:45:07;;;;;;;58.07;3.03;;;17.90;21.40;;;;;;5052508;28;20505;-73
2021/06/27 05:47:34;;;;;;;58.30;2.60;;;17.90;19.40;;;;;;5052606;28;20529;-73
2021/06/27 05:50:01;;;;;;;58.77;3.10;;;18.00;20.90;;;;;;5052259;28;20487;-73
2021/06/27 05:52:28;;;;;;;59.27;3.53;;;18.00;17.50;;;;;;5051738;28;20553;-73
2021/06/27 05:54:55;;;;;;;58.03;2.70;;;18.10;17.30;;;;;;5052000;28;20447;-73
2021/06/27 05:57:23;;;;;;;57.90;2.50;;;18.20;14.20;;;;;;5052030;28;20486;-73
2021/06/27 05:59:50;;;;;;;58.37;2.80;;;18.30;11.20;;;;;;5052028;28;20450;-73
2021/06/27 06:02:17;;;;;;;58.20;2.73;;;18.40;7.80;;;;;;5051838;28;20454;-73
2021/06/27 06:04:44;;;;;;;58.17;2.80;;;18.50;3.10;;;;;;5051989;28;20487;-73
2021/06/27 06:07:11;;;;;;;58.23;2.73;;;18.50;1.00;;;;;;5051995;28;20526;-73
2021/06/27 06:09:37;;;;;;;58.37;2.47;;;18.60;1.00;;;;;;5051756;28;20929;-73
2021/06/27 06:12:05;;;;;;;59.30;3.67;;;18.60;1.00;;;;;;5051747;28;20903;-73
2021/06/27 06:14:34;;;;;;;58.33;3.00;;;18.60;1.00;;;;;;5052085;28;20813;-73
2021/06/27 06:17:00;;;;;;;58.17;2.40;;;18.70;1.00;;;;;;5051720;28;20513;-73
2021/06/27 06:19:27;;;;;;;58.20;2.50;;;18.70;1.00;;;;;;5051778;28;20444;-73
2021/06/27 06:21:54;;;;;;;58.50;2.60;;;18.80;1.00;;;;;;5051521;28;20480;-73
2021/06/27 06:24:21;;;;;;;58.40;2.60;;;18.80;1.00;;;;;;5051316;28;20991;-73
2021/06/27 06:26:49;;;;;;;58.90;3.10;;;18.90;1.00;;;;;;5051852;28;20480;-72
2021/06/27 06:29:15;;;;;;;58.17;2.70;;;19.00;1.00;;;;;;5051596;28;20518;-73
2021/06/27 06:31:44;;;;;;;58.57;2.73;;;19.10;1.00;;;;;;5051860;28;20502;-73
2021/06/27 06:34:11;;;;;;;58.57;2.70;;;19.10;1.00;;;;;;5051645;28;20559;-73
2021/06/27 06:36:37;;;;;;;58.23;2.57;;;19.10;1.00;;;;;;5051672;28;20483;-73
2021/06/27 06:39:05;;;;;;;57.97;2.80;;;19.10;1.00;;;;;;5051819;28;20496;-74
2021/06/27 06:41:32;;;;;;;58.23;2.87;;;19.10;1.00;;;;;;5051310;28;20537;-74
2021/06/27 06:43:58;;;;;;;57.97;2.80;;;19.10;1.00;;;;;;5051640;28;20556;-75
2021/06/27 06:46:25;;;;;;;58.70;2.80;;;19.30;1.00;;;;;;5051691;28;20486;-75
2021/06/27 06:48:56;;;;;;;58.17;2.67;;;19.40;1.00;;;;;;5051666;28;20486;-75
2021/06/27 06:51:23;;;;;;;58.20;3.10;;;19.60;1.00;;;;;;5052320;28;20549;-75
2021/06/27 06:53:50;;;;;;;58.37;2.50;;;19.80;1.00;;;;;;5055594;28;20555;-75
2021/06/27 06:56:17;;;;;;;58.27;2.60;;;20.00;1.00;;;;;;5055545;28;20937;-75
2021/06/27 06:58:44;;;;;;;59.73;4.23;;;20.20;1.00;;;;;;5055672;28;20451;-75
2021/06/27 07:01:11;;;;;;;58.07;2.47;;;20.30;1.00;;;;;;5055498;28;20467;-75
2021/06/27 07:03:38;;;;;;;57.80;2.40;;;20.50;1.00;;;;;;5055061;28;20556;-75
2021/06/27 07:06:06;;;;;;;58.07;2.97;;;20.60;1.00;;;;;;5055249;28;21041;-75
2021/06/27 07:08:33;;;;;;;59.00;3.30;;;20.70;1.00;;;;;;5055420;28;20829;-75
2021/06/27 07:11:00;;;;;;;59.00;3.40;;;20.80;1.00;;;;;;5055262;28;20928;-75
2021/06/27 07:13:27;;;;;;;58.07;3.37;;;20.80;1.00;;;;;;5055036;28;20469;-75
2021/06/27 07:15:54;;;;;;;58.27;2.50;;;20.90;1.00;;;;;;5055219;28;20958;-75
2021/06/27 07:18:21;;;;;;;57.87;2.80;;;20.90;1.00;;;;;;5055046;28;20477;-75
2021/06/27 07:20:49;;;;;;;58.13;2.60;;;20.90;1.00;;;;;;5055341;28;20538;-75
2021/06/27 07:23:18;;;;;;;58.27;2.60;;;20.90;1.00;;;;;;5054762;28;20565;-75
2021/06/27 07:25:45;;;;;;;58.57;3.00;;;20.90;1.00;;;;;;5055004;28;20461;-75
2021/06/27 07:28:12;;;;;;;58.07;2.80;;;20.90;1.00;;;;;;5055003;28;20533;-75
2021/06/27 07:30:38;;;;;;;58.50;3.00;;;21.00;1.00;;;;;;5054955;28;20513;-75
2021/06/27 07:33:06;;;;;;;58.33;2.70;;;21.10;1.00;;;;;;5054511;28;20583;-75
2021/06/27 07:35:33;;;;;;;58.10;2.53;;;21.30;1.00;;;;;;5054818;28;20482;-75
2021/06/27 07:37:59;;;;;;;58.13;2.80;;;21.50;1.00;;;;;;5054858;28;20491;-73
2021/06/27 07:40:28;;;;;;;58.27;2.60;;;21.70;1.00;;;;;;5054896;28;20483;-75
2021/06/27 07:42:55;;;;;;;58.30;2.53;;;21.90;1.00;;;;;;5054432;28;20478;-75
2021/06/27 07:45:22;;;;;;;58.30;2.87;;;22.00;1.00;;;;;;5054596;28;20546;-75
2021/06/27 07:47:49;;;;;;;57.83;2.50;;;22.10;1.00;;;;;;5054923;28;20476;-75
2021/06/27 07:50:15;;;;;;;58.30;2.70;;;22.10;1.00;;;;;;5054699;28;20577;-76
2021/06/27 07:52:42;;;;;;;58.80;2.77;;;22.00;1.00;;;;;;5054074;28;20563;-75
2021/06/27 07:55:10;;;;;;;58.20;2.80;;;22.00;1.00;;;;;;5054376;28;20546;-75
2021/06/27 07:57:39;;;;;;;58.63;3.40;;;21.90;1.00;;;;;;5054435;28;20533;-75
2021/06/27 08:00:08;;;;;;;58.47;2.80;;;21.90;1.00;;;;;;5054346;28;20540;-75
2021/06/27 08:02:35;;;;;;;58.33;2.63;;;22.00;1.00;;;;;;5053321;28;20479;-75
2021/06/27 08:05:02;;;;;;;58.17;2.50;;;22.10;1.00;;;;;;5054212;28;20459;-75
2021/06/27 08:07:29;;;;;;;58.03;2.37;;;22.20;1.00;;;;;;5054357;28;20538;-74
2021/06/27 08:09:56;;;;;;;58.03;2.50;;;22.40;1.00;;;;;;5054556;28;20548;-75
2021/06/27 08:12:23;;;;;;;58.37;2.50;;;22.50;1.00;;;;;;5053829;28;20970;-75
2021/06/27 08:14:51;;;;;;;57.83;2.60;;;22.70;1.00;;;;;;5053987;28;20456;-75
2021/06/27 08:17:18;;;;;;;58.37;2.87;;;22.80;1.00;;;;;;5054028;28;20541;-75
2021/06/27 08:19:46;;;;;;;58.47;2.47;;;22.90;1.00;;;;;;5054551;28;20547;-75
2021/06/27 08:22:14;;;;;;;58.20;2.50;;;23.00;1.00;;;;;;5053603;28;20454;-75
2021/06/27 08:24:41;;;;;;;58.03;2.80;;;23.00;1.00;;;;;;5053981;28;20464;-75
2021/06/27 08:27:08;;;;;;;57.87;2.63;;;23.10;1.00;;;;;;5054368;28;20448;-75
2021/06/27 08:29:36;;;;;;;57.97;2.50;;;23.30;1.00;;;;;;5054186;28;20474;-75
2021/06/27 08:32:04;;;;;;;58.40;2.63;;;23.40;1.00;;;;;;5053672;28;20476;-75
2021/06/27 08:34:31;;;;;;;57.97;2.20;;;23.50;1.00;;;;;;5053701;28;20990;-75
2021/06/27 08:36:58;;;;;;;59.00;3.73;;;23.60;1.00;;;;;;5053714;28;20440;-75
2021/06/27 08:39:25;;;;;;;57.87;2.60;;;23.70;1.00;;;;;;5053658;28;20440;-75
2021/06/27 08:41:52;;;;;;;58.60;2.80;;;23.70;1.00;;;;;;5053362;28;20486;-74
2021/06/27 08:44:20;;;;;;;58.07;2.47;;;23.80;1.00;;;;;;5053635;28;20496;-74
2021/06/27 08:46:49;;;;;;;58.10;2.50;;;23.90;1.00;;;;;;5053660;28;20535;-73
2021/06/27 08:49:20;;;;;;;58.37;2.63;;;24.00;1.00;;;;;;5053509;28;20526;-73
2021/06/27 08:51:48;;;;;;;58.20;2.30;;;24.10;1.00;;;;;;5053010;28;20484;-74
2021/06/27 08:54:14;;;;;;;58.17;2.40;;;24.20;1.00;;;;;;5053088;28;21063;-73
2021/06/27 08:56:41;;;;;;;58.40;2.60;;;24.30;1.00;;;;;;5053284;28;21022;-74
2021/06/27 08:59:08;;;;;;;58.57;2.63;;;24.50;1.00;;;;;;5053320;28;20455;-74
2021/06/27 09:01:35;;;;;;;58.20;2.77;;;24.60;1.00;;;;;;5053064;28;20960;-74
2021/06/27 09:04:02;;;;;;;58.47;2.80;;;24.70;1.00;;;;;;5052953;28;20670;-73
2021/06/27 09:06:32;;;;;;;59.00;2.50;;;24.90;1.00;;;;;;5053025;28;20537;-74
2021/06/27 09:09:17;;;;;;;57.83;2.13;;;25.10;1.00;;;;;;5052924;28;20889;-74
2021/06/27 09:11:58;;;;;;;61.90;2.90;;;25.10;1.00;;;;;;5052776;28;20594;-74
2021/06/27 09:14:34;;;;;;;57.97;2.40;;;25.20;1.00;;;;;;5052723;28;20499;-73
2021/06/27 09:17:16;;;;;;;57.77;2.00;;;25.40;1.00;;;;;;5052815;28;20448;-73
2021/06/27 09:19:59;;;;;;;57.97;2.50;;;25.50;1.00;;;;;;5052854;28;20513;-74
2021/06/27 09:22:30;;;;;;;58.30;2.63;;;25.80;1.00;;;;;;5051428;28;20453;-74
2021/06/27 09:25:13;;;;;;;57.90;2.57;;;26.00;1.00;;;;;;5052623;28;20536;-73
2021/06/27 09:27:40;;;;;;;57.97;2.60;;;26.30;1.00;;;;;;5052629;28;20539;-73
2021/06/27 09:30:25;;;;;;;58.10;2.40;;;26.50;1.00;;;;;;5052877;28;20514;-74
2021/06/27 09:32:59;;;;;;;58.30;2.40;;;26.80;1.00;;;;;;5052429;28;20544;-74
2021/06/27 09:35:50;;;;;;;57.97;2.30;;;26.90;1.00;;;;;;5052543;28;20538;-73
2021/06/27 09:38:27;;;;;;;59.87;4.37;;;27.00;1.00;;;;;;5052700;28;20447;-74
2021/06/27 09:40:56;;;;;;;57.87;2.30;;;27.00;1.00;;;;;;5052511;28;20446;-74
2021/06/27 09:43:24;;;;;;;58.17;2.57;;;27.10;1.00;;;;;;5052080;28;20497;-74
2021/06/27 09:45:53;;;;;;;57.77;2.10;;;27.20;1.00;;;;;;5052442;28;20486;-74
2021/06/27 09:48:20;;;;;;;57.67;2.10;;;27.30;1.00;;;;;;5052283;28;20502;-74
2021/06/27 09:50:47;;;;;;;58.17;2.60;;;27.30;1.00;;;;;;5052432;28;20857;-74
2021/06/27 09:53:34;;;;;;;57.77;2.40;;;27.30;1.00;;;;;;5052009;28;20566;-74
2021/06/27 09:56:04;;;;;;;57.77;2.20;;;27.30;1.00;;;;;;5051813;28;20983;-75
2021/06/27 09:58:31;;;;;;;57.73;2.20;;;27.40;1.00;;;;;;5052179;28;20540;-73
2021/06/27 10:00:58;;;;;;;57.43;2.00;;;27.50;1.00;;;;;;5051850;28;20447;-73
2021/06/27 10:03:26;;;;;;;58.07;2.37;;;27.70;1.00;;;;;;5051808;28;20460;-73
2021/06/27 10:06:05;;;;;;;57.77;2.20;;;27.80;1.00;;;;;;5052250;28;20619;-73
2021/06/27 10:08:33;;;;;;;58.40;3.67;;;28.00;1.00;;;;;;5052031;28;20451;-73
2021/06/27 10:11:15;;;;;;;57.77;2.13;;;28.30;1.00;;;;;;5052067;28;20511;-73
2021/06/27 10:13:46;;;;;;;57.57;2.17;;;28.50;1.00;;;;;;5051842;28;20487;-73
2021/06/27 10:16:16;;;;;;;57.80;2.30;;;28.90;1.00;;;;;;5052106;28;20454;-72
2021/06/27 10:18:43;;;;;;;57.47;2.07;;;29.20;1.00;;;;;;5052059;28;20450;-74
2021/06/27 10:21:11;;;;;;;58.03;2.30;;;29.60;1.00;;;;;;5051597;28;21007;-74
2021/06/27 10:23:39;;;;;;;58.17;2.37;;;29.80;1.00;;;;;;5051467;28;20469;-74
2021/06/27 10:26:06;;;;;;;57.80;2.30;;;30.10;1.00;;;;;;5051594;28;20461;-74
2021/06/27 10:28:35;;;;;;;57.73;2.30;;;30.90;1.00;;;;;;5051945;28;20838;-74
2021/06/27 10:31:02;;;;;;;57.70;2.37;;;32.10;1.00;;;;;;5051691;28;20512;-74
2021/06/27 10:33:29;;;;;;;57.60;2.47;;;33.50;1.00;;;;;;5051448;28;20568;-74
2021/06/27 10:35:56;;;;;;;57.87;2.57;;;34.40;1.00;;;;;;5051422;28;20539;-74
2021/06/27 10:38:28;;;;;;;57.80;2.40;;;35.30;1.00;;;;;;5049903;28;20869;-75
2021/06/27 10:40:58;;;;;;;57.50;2.20;;;35.10;1.00;;;;;;5051279;28;20477;-74
2021/06/27 10:43:26;;;;;;;57.37;2.10;;;34.60;1.00;;;;;;5051470;28;20500;-73
2021/06/27 10:46:01;;;;;;;57.33;2.00;;;34.00;1.00;;;;;;5051525;28;20886;-74
2021/06/27 10:48:39;;;;;;;57.30;2.03;;;34.00;1.00;;;;;;5051339;28;20460;-74
2021/06/27 10:51:08;;;;;;;57.00;1.80;;;34.90;1.00;;;;;;5051518;28;20472;-73
2021/06/27 10:54:16;;;;;;;57.53;2.60;;;35.60;1.00;;;;;;5051626;28;20476;-76
2021/06/27 10:56:59;;;;;;;58.00;2.60;;;35.90;1.00;;;;;;5051480;28;20509;-72
2021/06/27 11:00:00;;;;;;;57.27;2.10;;;36.10;1.00;;;;;;5043386;28;20463;-74
2021/06/27 11:02:39;;;;;;;57.30;2.20;;;36.50;1.00;;;;;;5044919;28;20540;-74
2021/06/27 11:05:44;;;;;;;57.10;2.20;;;36.20;1.00;;;;;;5051415;28;20852;-74
2021/06/27 11:08:15;;;;;;;57.40;2.27;;;35.60;1.00;;;;;;5051672;28;20505;-74
2021/06/27 11:10:42;;;;;;;57.40;2.20;;;35.80;1.00;;;;;;5051559;28;20455;-74
2021/06/27 11:13:14;;;;;;;57.30;2.20;;;36.10;1.00;;;;;;5050824;28;20479;-75
2021/06/27 11:16:21;;;;;;;57.97;2.50;;;36.40;1.00;;;;;;5051254;28;20821;-74
2021/06/27 11:18:50;;;;;;;56.93;2.00;;;36.50;1.00;;;;;;5051347;28;20448;-74
2021/06/27 11:21:25;;;;;;;57.67;2.77;;;36.60;1.00;;;;;;5051221;28;20451;-74
2021/06/27 11:23:58;;;;;;;57.60;2.77;;;36.90;1.00;;;;;;5050972;28;20550;-74
2021/06/27 11:26:44;;;;;;;57.23;2.30;;;37.00;1.00;;;;;;5050947;28;20530;-74
2021/06/27 11:29:41;;;;;;;56.97;2.20;;;37.50;1.00;;;;;;5051070;28;20538;-75
2021/06/27 11:32:45;;;;;;;57.57;2.40;;;38.30;1.00;;;;;;5056435;28;20849;-74
2021/06/27 11:35:28;;;;;;;58.47;2.60;;;38.90;1.00;;;;;;5071243;28;20453;-75
2021/06/27 11:37:55;;;;;;;56.87;2.03;;;;;;;;;;5072834;28;20487;-75
2021/06/27 11:40:44;;;;;;;57.80;2.50;;;40.00;1.00;;;;;;5074693;28;20447;-74
2021/06/27 11:43:11;;;;;;;56.93;2.23;;;40.70;1.00;;;;;;5074134;28;20547;-74
2021/06/27 11:45:45;;;;;;;57.00;2.10;;;40.90;1.00;;;;;;5074856;28;20533;-75
2021/06/27 11:48:12;;;;;;;57.97;2.57;;;41.00;1.00;;;;;;5074671;28;20534;-75
2021/06/27 11:50:42;;;;;;;57.00;2.40;;;41.10;1.00;;;;;;5074352;28;20954;-74
2021/06/27 11:53:11;;;;;;;56.97;2.20;;;41.10;1.00;;;;;;5074048;28;20479;-74
2021/06/27 11:55:39;;;;;;;56.87;2.20;;;41.30;1.00;;;;;;5074253;28;20538;-75
2021/06/27 11:58:08;;;;;;;56.93;2.17;;;41.50;1.00;;;;;;5074244;28;20450;-75
2021/06/27 12:00:37;;;;;;;57.23;2.57;;;41.70;1.00;;;;;;5067133;28;20454;-75
2021/06/27 12:03:07;;;;;;;56.80;2.10;;;42.20;1.00;;;;;;5062085;28;20526;-75
2021/06/27 12:05:34;;;;;;;57.40;2.30;;;42.70;1.00;;;;;;5074246;28;20447;-74
2021/06/27 12:08:08;;;;;;;57.07;2.40;;;42.70;1.00;;;;;;5073889;28;20482;-75
2021/06/27 12:10:37;;;;;;;56.80;2.40;;;42.30;1.00;;;;;;5073878;28;20713;-75
2021/06/27 12:13:05;;;;;;;56.80;2.00;;;42.00;1.00;;;;;;5073631;28;20497;-74
2021/06/27 12:15:38;;;;;;;56.57;2.17;;;42.20;1.00;;;;;;5073881;28;20827;-74
2021/06/27 12:18:12;;;;;;;57.00;2.37;;;42.40;1.00;;;;;;5074027;28;20487;-75
2021/06/27 12:20:46;;;;;;;56.87;2.13;;;42.80;1.00;;;;;;5073805;28;20801;-75
2021/06/27 12:23:14;;;;;;;56.70;2.10;;;43.10;1.00;;;;;;5073540;28;20467;-74
2021/06/27 12:25:43;;;;;;;57.10;2.10;;;43.50;1.00;;;;;;5073782;28;20891;-74
2021/06/27 12:28:13;;;;;;;56.97;2.60;;;43.10;1.00;;;;;;5073735;28;20483;-76
2021/06/27 12:30:49;;;;;;;57.47;2.30;;;42.70;1.00;;;;;;5073620;28;20842;-74
2021/06/27 12:33:19;;;;;;;56.47;2.10;;;42.80;1.00;;;;;;5039771;28;20991;-74
2021/06/27 12:35:49;;;;;;;56.63;2.27;;;42.70;1.00;;;;;;5073870;28;20561;-74
2021/06/27 12:38:17;;;;;;;56.87;2.00;;;42.40;1.00;;;;;;5073691;28;20460;-74
2021/06/27 12:40:48;;;;;;;57.20;2.30;;;42.00;1.00;;;;;;5073691;28;20451;-74
2021/06/27 12:43:34;;;;;;;56.57;2.20;;;41.50;1.00;;;;;;5073138;28;20458;-75
2021/06/27 12:46:25;;;;;;;58.10;2.50;;;41.50;1.00;;;;;;5073429;28;20941;-74
2021/06/27 12:49:08;;;;;;;57.20;2.30;;;41.40;1.00;;;;;;5072848;28;20527;-74
2021/06/27 12:51:37;;;;;;;57.40;2.60;;;40.80;1.00;;;;;;5072957;28;20514;-74
2021/06/27 12:54:10;;;;;;;56.87;2.10;;;40.60;1.00;;;;;;5073505;28;20647;-74